Drake Field
KFYV : now visible

Airfield :











YOU CAN JOIN US ON...

 
LOGIN :

Register | Disclaimer

   EN    FR    IT 

 









Legend :    VFR   Marginal VFR   IFR   Intensive IFR   Very Intensive IFR
Visi :
Ceiling :
>= 8 km
>= 3000ft
5 to 8 km
1000 to 3000 ft
1500m to 5 km
500 to 1000 ft
800 to 1500m
200 to 500 ft
< 800m
< 200 ft
Symbols :   Thunderstorms  Fog  Heavy snow  Heavy precipitations  Wind > 20 kt






- Airport Elevation : 1251 ft
- IATA code : FYV


KFYV - Drake Field

CURRENT METAR :
  • 112053Z 07004KT 10SM -RA FEW045 FEW070 BKN095 22/22 A3003 RMK AO2 TSB11E26 SLP157 6//// T02220217 58001 PNO

EXPIRED METARs :
  • 112032Z 00000KT 10SM VCTS -RA OVC100 22/21 A3004 RMK AO2 LTG DSNT NE TSB11E26 T02220211 PNO
  • 112017Z 14003KT 8SM -TSRA OVC110 22/21 A3005 RMK AO2 LTG DSNT NE TSB11 T02170211 PNO $
  • 111953Z 15003KT 4SM RA BR FEW090 OVC110 22/21 A3006 RMK AO2 LTG DSNT E TSB1856E17 SLP165 P0001 T02170211
  • 111923Z 18007KT 10SM -RA FEW090 OVC110 22/21 A3006 RMK AO2 LTG DSNT E AND SE TSB1856E17 P0001 T02170206
  • 111859Z 22010G19KT 10SM -TSRA FEW023 BKN050 OVC080 22/21 A3006 RMK AO2 LTG DSNT ALQDS TSB56 P0000 T02170206
  • 111853Z 23011KT 6SM VCTS -RA BR FEW023 BKN048 OVC070 22/21 A3005 RMK AO2 PK WND 24028/1842 LTG DSNT ALQDS RAB45 SLP163 P0003 T02170206
  • 111839Z 24015G25KT 10SM VCTS FEW024 BKN033 BKN040 23/21 A3005 RMK AO2 LTG DSNT ALQDS P0001 T02330206

TAF KFYV
Valid from the 11 at 21:00 until the 12 at 18:00 UTC


112045Z 1121/1218 00000KT P6SM VCSH OVC100
TEMPO 1121/1201 3SM -TSRA BKN050CB
FM120100 13002KT P6SM OVC025
FM120600 17003KT P6SM OVC050
FM120800 19002KT P6SM OVC015
TEMPO 1208/1212 3SM BR BKN007
KZME FIR / North America



MET'MAP, your aeronautical weather chart ! - Copyright ORBIFLY December 2007 - Disclaimer

ORBIFLY MET'MAP TEAM :

Programming & Development : Alexandra Zaïnal
Concept & original design : Baudouin d'Aumeries
Assistance for programming : Marc-Olivier Méhu
Technical & hardware support : Manuel Goepfert

Contact : metmap@orbifly.com




SOURCES & CREDITS :

   NOAA       Earth
Advisory